Hawkeye, New York
Current Conditions -  °F | °C
As of 12:53 PM on Wednesday 28 Jan 2015 (Local Time) from KPBG Reporting Station
Clear Clear  
Wind Chill:   Ceiling: Unl
Heat Index: 18°   Visibility: 10mi
Dew Point: -4°   Wind: 12mph
Humidity: 38%   Direction: 20°NNE
Pressure: 30.15"   Gusts: NA
Location:  44.4763°N, 73.7818°W
Report Text: KPBG 281753Z AUTO 02010KT 10SM CLR M08/M20 A3015 RMK AO2 SLP214 T10781200 11072 21144 58004
Loading
Personal Weather Stations






























Interactive Weather Map New forecast layout! Learn more

10-Day Weather Forecast

Advertisements
Track Severe Weather on mobile